Time;durP1;ratioP1;P1;durP2;ratioP2;P2;SDS_P1;SDS_P2;PMS_P1;PMS_P2;Temp;Humidity;BMP_temperature;BMP_pressure;BME280_temperature;BME280_humidity;BME280_pressure;Samples;Min_cycle;Max_cycle;Signal;HPM_P1;HPM_P2
2021/08/07 00:01:00;;;;;;;4.95;1.70;;;;;;;19.17;80.20;98565.17;1754149;79;21084;-60
2021/08/07 00:03:27;;;;;;;2.52;1.92;;;;;;;19.15;80.30;98569.41;1758572;79;21216;-61
2021/08/07 00:05:53;;;;;;;3.85;1.65;;;;;;;19.13;80.40;98581.01;1760333;80;20882;-60
2021/08/07 00:08:19;;;;;;;2.42;2.08;;;;;;;19.13;80.43;98581.52;1757452;79;21030;-60
2021/08/07 00:10:46;;;;;;;3.77;1.75;;;;;;;19.11;80.48;98582.17;1757566;79;21081;-60
2021/08/07 00:13:12;;;;;;;3.20;1.40;;;;;;;19.11;80.54;98587.62;1758547;79;21626;-60
2021/08/07 00:15:40;;;;;;;8.83;2.85;;;;;;;19.08;80.60;98590.15;1754711;79;21418;-60
2021/08/07 00:18:07;;;;;;;3.92;1.60;;;;;;;19.10;80.57;98589.49;1759768;79;21535;-60
2021/08/07 00:20:33;;;;;;;3.55;2.25;;;;;;;19.09;80.57;98599.19;1763951;79;21145;-60
2021/08/07 00:22:59;;;;;;;5.42;2.47;;;;;;;19.06;80.50;98604.94;1758365;79;21088;-60
2021/08/07 00:25:26;;;;;;;1.95;1.75;;;;;;;19.05;80.42;98608.71;1762271;79;21035;-60
2021/08/07 00:27:53;;;;;;;2.27;1.50;;;;;;;19.02;80.42;98614.47;1760413;79;21099;-60
2021/08/07 00:30:19;;;;;;;6.62;2.22;;;;;;;19.01;80.38;98608.15;1760964;79;21434;-60
2021/08/07 00:32:46;;;;;;;4.90;1.92;;;;;;;19.00;80.26;98617.34;1757008;79;21106;-60
2021/08/07 00:35:13;;;;;;;2.72;2.02;;;;;;;19.00;80.18;98622.80;1759353;79;21037;-60
2021/08/07 00:37:42;;;;;;;5.45;2.37;;;;;;;19.00;80.05;98620.57;1758624;79;21685;-60
2021/08/07 00:40:12;;;;;;;8.03;1.82;;;;;;;18.98;80.03;98616.63;1758040;79;21687;-60
2021/08/07 00:42:39;;;;;;;3.33;1.95;;;;;;;18.99;80.04;98616.13;1759892;79;21069;-60
2021/08/07 00:45:10;;;;;;;3.27;1.70;;;;;;;18.98;79.91;98621.22;1761170;79;22166;-60
2021/08/07 00:47:37;;;;;;;3.62;2.30;;;;;;;18.96;79.76;98632.31;1734773;79;22009;-60
2021/08/07 00:50:05;;;;;;;2.60;1.72;;;;;;;18.94;79.65;98624.78;1730385;79;21092;-60
2021/08/07 00:52:32;;;;;;;3.35;1.82;;;;;;;18.90;79.79;98631.54;1759437;79;20899;-60
2021/08/07 00:54:59;;;;;;;8.33;1.37;;;;;;;18.89;79.87;98632.05;1757569;79;20994;-60
2021/08/07 00:57:26;;;;;;;3.75;1.92;;;;;;;18.87;79.96;98626.41;1734902;79;22087;-60
2021/08/07 00:59:55;;;;;;;3.58;1.45;;;;;;;18.86;80.00;98638.33;1732268;79;21346;-60
2021/08/07 01:02:23;;;;;;;1.82;1.22;;;;;;;18.85;80.10;98636.10;1759238;79;20953;-60
2021/08/07 01:07:10;;;;;;;2.33;1.77;;;;;;;18.86;80.12;98629.64;1784535;78;28729;-60
2021/08/07 01:09:57;;;;;;;5.78;1.50;;;;;;;18.84;80.15;98629.44;1759965;79;21020;-60
2021/08/07 01:12:42;;;;;;;1.95;1.45;;;;;;;18.83;80.22;98634.53;1723365;80;21928;-59
2021/08/07 01:15:10;;;;;;;1.85;1.10;;;;;;;18.81;80.20;98642.86;1766628;79;20906;-60
2021/08/07 01:17:37;;;;;;;1.75;1.35;;;;;;;18.79;80.19;98639.95;1741776;80;20975;-60
2021/08/07 01:20:27;;;;;;;1.15;0.95;;;;;;;18.78;80.24;98647.77;1768310;79;21057;-60
2021/08/07 01:23:21;;;;;;;1.92;1.10;;;;;;;18.76;80.26;98647.92;1766678;79;21061;-60
2021/08/07 01:26:18;;;;;;;2.15;1.20;;;;;;;18.75;80.20;98653.52;1711128;81;22278;-60
2021/08/07 01:28:50;;;;;;;1.95;1.37;;;;;;;18.74;80.22;98654.02;1633038;85;21939;-60
2021/08/07 01:31:18;;;;;;;3.10;1.15;;;;;;;18.73;80.16;98650.94;1649099;84;21061;-60
2021/08/07 01:33:45;;;;;;;3.35;1.20;;;;;;;18.75;80.21;98650.80;1679881;82;21484;-60
2021/08/07 01:36:14;;;;;;;3.20;1.10;;;;;;;18.74;80.16;98645.84;1710822;81;21081;-59
2021/08/07 01:38:43;;;;;;;3.02;1.00;;;;;;;18.74;80.18;98651.80;1694009;82;21163;-59
2021/08/07 01:41:21;;;;;;;1.22;1.10;;;;;;;18.74;80.22;98651.80;1696120;83;21010;-60
2021/08/07 01:43:50;;;;;;;2.37;0.90;;;;;;;18.75;80.17;98659.83;1707577;81;22206;-60
2021/08/07 01:46:19;;;;;;;3.58;1.57;;;;;;;18.74;80.17;98658.61;1718637;81;21094;-60
2021/08/07 01:48:57;;;;;;;4.50;1.20;;;;;;;18.74;80.17;98655.89;1705991;81;21069;-60
2021/08/07 01:51:33;;;;;;;4.00;1.10;;;;;;;18.72;80.20;98662.84;1696623;81;23303;-60
2021/08/07 01:53:59;;;;;;;1.52;1.35;;;;;;;18.71;80.18;98659.80;1712072;81;20990;-58
2021/08/07 01:56:35;;;;;;;3.35;1.10;;;;;;;18.69;80.15;98655.50;1726037;81;20947;-57
2021/08/07 01:59:07;;;;;;;2.37;1.20;;;;;;;18.67;80.15;98660.23;1714747;82;21124;-57
2021/08/07 02:01:35;;;;;;;3.60;1.10;;;;;;;18.63;80.16;98662.92;1737331;81;21105;-58
2021/08/07 02:04:03;;;;;;;1.25;1.15;;;;;;;18.59;80.19;98668.31;1735959;81;22407;-58
2021/08/07 02:06:31;;;;;;;4.12;0.88;;;;;;;18.57;80.24;98666.23;1738081;81;21435;-59
2021/08/07 02:08:58;;;;;;;3.55;0.80;;;;;;;18.54;80.33;98673.66;1710027;81;21045;-59
2021/08/07 02:11:26;;;;;;;3.77;1.10;;;;;;;18.55;80.31;98682.69;1726469;81;21011;-57
2021/08/07 02:13:54;;;;;;;3.58;1.27;;;;;;;18.54;80.34;98686.45;1706640;81;21723;-57
2021/08/07 02:16:23;;;;;;;3.90;0.90;;;;;;;18.53;80.32;98688.82;1729401;81;21164;-58
2021/08/07 02:18:51;;;;;;;3.00;1.10;;;;;;;18.51;80.23;98687.60;1731694;81;21248;-59
2021/08/07 02:21:19;;;;;;;7.80;1.00;;;;;;;18.51;80.11;98692.19;1728583;81;21096;-57
2021/08/07 02:23:48;;;;;;;4.53;1.10;;;;;;;18.49;80.05;98703.23;1720381;81;21574;-58
2021/08/07 02:26:16;;;;;;;9.20;2.58;;;;;;;18.49;79.93;98694.20;1735855;81;21128;-57
2021/08/07 02:28:44;;;;;;;4.15;0.90;;;;;;;18.47;79.84;98699.80;1729653;81;21142;-58
2021/08/07 02:31:11;;;;;;;4.00;1.10;;;;;;;18.45;79.72;98698.25;1728100;81;21064;-58
2021/08/07 02:33:40;;;;;;;3.70;1.15;;;;;;;18.42;79.54;98699.89;1700327;81;21089;-58
2021/08/07 02:36:06;;;;;;;2.80;1.00;;;;;;;18.39;79.41;98698.81;1727345;81;22669;-59
2021/08/07 02:38:34;;;;;;;3.22;0.88;;;;;;;18.37;79.29;98703.05;1718464;81;21073;-58
2021/08/07 02:41:00;;;;;;;3.17;0.90;;;;;;;18.33;79.18;98700.28;1735115;81;21030;-59
2021/08/07 02:43:29;;;;;;;4.70;0.90;;;;;;;18.32;79.09;98707.23;1725363;81;21113;-58
2021/08/07 02:45:56;;;;;;;2.25;1.10;;;;;;;18.30;79.04;98708.73;1709488;82;21109;-59
2021/08/07 02:48:26;;;;;;;2.20;0.80;;;;;;;18.27;78.94;98716.37;1684930;83;21537;-58
2021/08/07 02:50:55;;;;;;;3.67;1.10;;;;;;;18.25;78.83;98723.31;1673325;83;21021;-58
2021/08/07 02:53:22;;;;;;;1.42;1.00;;;;;;;18.22;78.71;98729.55;1698201;82;21138;-58
2021/08/07 02:55:49;;;;;;;1.20;0.80;;;;;;;18.20;78.70;98726.14;1680240;82;21037;-58
2021/08/07 02:58:19;;;;;;;1.00;0.70;;;;;;;18.17;78.56;98729.14;1729689;81;21058;-57
2021/08/07 03:00:46;;;;;;;1.98;0.90;;;;;;;18.14;78.55;98735.73;1677240;82;21690;-59
2021/08/07 03:03:13;;;;;;;3.25;0.80;;;;;;;18.11;78.53;98742.85;1704607;82;21098;-58
2021/08/07 03:05:42;;;;;;;1.30;0.72;;;;;;;18.09;78.53;98746.22;1694983;82;22059;-58
2021/08/07 03:08:10;;;;;;;1.20;1.10;;;;;;;18.06;78.59;98750.08;1701708;82;21117;-58
2021/08/07 03:10:39;;;;;;;1.62;1.20;;;;;;;18.04;78.62;98752.08;1695371;82;21801;-57
2021/08/07 03:13:06;;;;;;;1.52;1.00;;;;;;;18.02;78.64;98759.56;1690471;83;21057;-57
2021/08/07 03:15:33;;;;;;;3.55;1.20;;;;;;;18.00;78.77;98755.25;1700813;82;21589;-58
2021/08/07 03:18:00;;;;;;;1.02;0.93;;;;;;;17.97;78.76;98768.64;1697654;82;21741;-57
2021/08/07 03:20:31;;;;;;;1.82;1.10;;;;;;;17.97;78.79;98764.56;1695925;83;21073;-58
2021/08/07 03:23:00;;;;;;;3.55;0.80;;;;;;;17.96;78.77;98768.28;1695807;82;21508;-58
2021/08/07 03:25:27;;;;;;;0.82;0.70;;;;;;;17.96;78.74;98768.78;1696535;82;21061;-57
2021/08/07 03:27:55;;;;;;;2.65;0.70;;;;;;;17.94;78.74;98764.87;1700828;83;21080;-58
2021/08/07 03:30:22;;;;;;;3.58;0.70;;;;;;;17.94;78.72;98774.40;1695678;83;21160;-58
2021/08/07 03:32:49;;;;;;;5.20;0.70;;;;;;;17.96;78.64;98777.81;1711808;81;21057;-58
2021/08/07 03:35:15;;;;;;;1.42;0.90;;;;;;;17.97;78.58;98779.53;1698033;81;21063;-57
2021/08/07 03:37:44;;;;;;;4.80;1.98;;;;;;;17.99;78.54;98775.31;1728030;81;21703;-58
2021/08/07 03:40:12;;;;;;;3.35;0.90;;;;;;;17.99;78.46;98784.34;1689989;82;21135;-58
2021/08/07 03:42:41;;;;;;;5.05;0.90;;;;;;;18.00;78.42;98787.42;1717402;81;21153;-57
2021/08/07 03:45:11;;;;;;;4.33;0.95;;;;;;;18.00;78.38;98783.84;1704098;81;21474;-58
2021/08/07 03:47:50;;;;;;;2.47;0.70;;;;;;;18.00;78.29;98789.28;1710680;82;21109;-57
2021/08/07 03:50:19;;;;;;;1.15;0.68;;;;;;;18.01;78.27;98800.54;1708441;82;21082;-58
2021/08/07 03:52:46;;;;;;;1.02;0.60;;;;;;;18.00;78.22;98798.31;1713157;82;21418;-57
2021/08/07 03:55:14;;;;;;;1.00;0.70;;;;;;;18.02;78.24;98793.59;1693335;82;21394;-58
2021/08/07 03:57:53;;;;;;;1.22;0.70;;;;;;;18.04;78.19;98787.48;1681586;82;21358;-59
2021/08/07 04:00:24;;;;;;;2.15;0.65;;;;;;;18.06;78.09;98785.48;1727370;81;20918;-59
2021/08/07 04:02:52;;;;;;;1.22;0.75;;;;;;;18.08;78.07;98782.62;1715788;81;20933;-59
2021/08/07 04:05:21;;;;;;;1.87;0.80;;;;;;;18.08;78.02;98778.53;1737669;81;21006;-57
2021/08/07 04:07:48;;;;;;;3.12;0.62;;;;;;;18.07;78.04;98783.12;1712612;81;21315;-58
2021/08/07 04:10:17;;;;;;;3.27;0.80;;;;;;;18.08;77.98;98777.17;1717629;82;20916;-58
2021/08/07 04:12:44;;;;;;;0.60;0.60;;;;;;;18.08;77.83;98773.09;1703587;82;20906;-57
2021/08/07 04:15:11;;;;;;;5.03;0.70;;;;;;;18.08;77.89;98780.75;1710901;82;20905;-59
2021/08/07 04:17:38;;;;;;;0.62;0.60;;;;;;;18.09;77.57;98782.98;1706078;82;21755;-58
2021/08/07 04:20:09;;;;;;;1.52;0.50;;;;;;;18.09;77.41;98781.11;1713248;82;20993;-58
2021/08/07 04:22:36;;;;;;;0.93;0.53;;;;;;;18.12;77.21;98784.03;1705604;82;21022;-57
2021/08/07 04:25:04;;;;;;;0.80;0.80;;;;;;;18.13;77.03;98785.75;1708854;82;21946;-58
2021/08/07 04:27:31;;;;;;;0.62;0.62;;;;;;;18.18;76.73;98782.11;1691664;82;21510;-59
2021/08/07 04:29:57;;;;;;;0.90;0.60;;;;;;;18.20;76.54;98779.25;1736361;81;21699;-57
2021/08/07 04:32:25;;;;;;;0.72;0.50;;;;;;;18.21;76.21;98781.80;1714072;82;21533;-57
2021/08/07 04:34:53;;;;;;;0.50;0.47;;;;;;;18.25;76.03;98779.16;1734033;81;21356;-58
2021/08/07 04:37:20;;;;;;;2.65;0.50;;;;;;;18.28;75.77;98782.97;1737861;81;21368;-58
2021/08/07 04:39:46;;;;;;;0.62;0.50;;;;;;;18.32;75.30;98787.09;1707071;81;21348;-55
2021/08/07 04:42:13;;;;;;;1.20;0.50;;;;;;;18.48;75.15;98788.71;1686421;81;21740;-55
2021/08/07 04:44:40;;;;;;;2.90;0.50;;;;;;;18.58;74.61;98784.63;1729517;81;21547;-56
2021/08/07 04:47:08;;;;;;;1.80;0.50;;;;;;;18.67;73.99;98776.94;1721949;81;21394;-55
2021/08/07 04:49:34;;;;;;;0.90;0.50;;;;;;;18.76;73.72;98792.41;1735603;81;21615;-57
2021/08/07 04:52:01;;;;;;;0.50;0.45;;;;;;;18.81;73.33;98789.22;1738355;81;21542;-52
2021/08/07 04:54:30;;;;;;;8.78;0.93;;;;;;;18.81;72.71;98796.89;1717510;81;21026;-58
2021/08/07 04:56:57;;;;;;;0.65;0.40;;;;;;;18.77;71.82;98806.39;1723168;81;21067;-58
2021/08/07 04:59:24;;;;;;;0.72;0.47;;;;;;;18.75;71.41;98807.03;1733782;81;21112;-57
2021/08/07 05:01:51;;;;;;;0.50;0.40;;;;;;;18.72;71.29;98804.59;1719032;81;20988;-58
2021/08/07 05:04:19;;;;;;;0.90;0.50;;;;;;;18.70;71.37;98799.82;1729451;81;20974;-58
2021/08/07 05:06:46;;;;;;;0.53;0.40;;;;;;;18.73;71.24;98793.19;1696602;82;21106;-56
2021/08/07 05:09:13;;;;;;;0.50;0.50;;;;;;;18.77;70.69;98793.27;1703990;83;21599;-55
2021/08/07 05:11:41;;;;;;;0.93;0.45;;;;;;;18.78;70.39;98791.76;1706410;82;21172;-56
2021/08/07 05:14:08;;;;;;;1.67;0.50;;;;;;;18.80;70.03;98792.44;1721277;81;21096;-58
2021/08/07 05:16:34;;;;;;;0.55;0.40;;;;;;;18.85;70.05;98786.56;1717364;81;21005;-58
2021/08/07 05:19:01;;;;;;;0.82;0.42;;;;;;;18.89;70.35;98785.23;1721534;81;21540;-57
2021/08/07 05:21:31;;;;;;;2.37;0.40;;;;;;;18.96;70.29;98786.88;1694292;81;21449;-58
2021/08/07 05:23:58;;;;;;;1.17;0.50;;;;;;;19.01;70.34;98796.32;1700120;81;20939;-59
2021/08/07 05:26:24;;;;;;;0.40;0.40;;;;;;;19.05;70.18;98793.66;1692015;81;21073;-60
2021/08/07 05:28:51;;;;;;;0.50;0.50;;;;;;;19.11;70.08;98805.33;1708735;81;21147;-60
2021/08/07 05:31:17;;;;;;;0.50;0.50;;;;;;;19.17;70.04;98804.72;1725974;81;21374;-59
2021/08/07 05:33:44;;;;;;;2.17;0.53;;;;;;;19.23;69.61;98804.09;1730128;81;22219;-59
2021/08/07 05:36:10;;;;;;;0.60;0.60;;;;;;;19.28;69.32;98809.12;1729985;80;23106;-59
2021/08/07 05:38:37;;;;;;;0.45;0.45;;;;;;;19.32;69.05;98817.34;1722438;81;21765;-59
2021/08/07 05:41:04;;;;;;;1.05;0.40;;;;;;;19.35;68.89;98803.41;1734861;80;21094;-59
2021/08/07 05:43:31;;;;;;;0.57;0.40;;;;;;;19.40;68.21;98803.80;1709813;81;21073;-58
2021/08/07 05:45:57;;;;;;;0.80;0.50;;;;;;;19.43;67.92;98813.05;1736069;81;21519;-59
2021/08/07 05:48:24;;;;;;;0.50;0.40;;;;;;;19.45;67.68;98806.94;1735881;81;21074;-59
2021/08/07 05:50:50;;;;;;;0.40;0.40;;;;;;;19.47;67.23;98806.80;1710162;81;21081;-59
2021/08/07 05:53:17;;;;;;;0.55;0.50;;;;;;;19.50;67.42;98813.32;1730946;81;21674;-57
2021/08/07 05:55:43;;;;;;;1.00;0.50;;;;;;;19.54;67.51;98815.61;1734172;81;21512;-60
2021/08/07 05:58:10;;;;;;;1.45;0.40;;;;;;;19.56;67.41;98817.66;1731067;81;21085;-59
2021/08/07 06:00:38;;;;;;;0.90;0.40;;;;;;;19.60;68.02;98821.81;1720230;81;21108;-58
2021/08/07 06:03:04;;;;;;;0.50;0.30;;;;;;;19.69;67.87;98819.17;1727429;81;21045;-59
2021/08/07 06:05:32;;;;;;;0.50;0.47;;;;;;;19.77;67.68;98832.41;1721406;81;21141;-59
2021/08/07 06:08:04;;;;;;;0.60;0.50;;;;;;;19.85;67.58;98827.03;1738688;81;21125;-59
2021/08/07 06:10:31;;;;;;;0.88;0.50;;;;;;;19.91;67.17;98821.44;1731103;81;21641;-57
2021/08/07 06:12:59;;;;;;;0.60;0.50;;;;;;;19.94;66.59;98825.23;1729066;81;21119;-57
2021/08/07 06:15:26;;;;;;;0.40;0.40;;;;;;;19.92;66.29;98822.66;1724587;81;21044;-59
2021/08/07 06:17:52;;;;;;;0.60;0.50;;;;;;;19.93;66.03;98823.52;1726299;81;20919;-59
2021/08/07 06:20:20;;;;;;;0.62;0.50;;;;;;;19.93;65.99;98831.21;1720142;81;21051;-58
2021/08/07 06:22:48;;;;;;;1.55;0.45;;;;;;;19.94;66.08;98823.38;1729077;81;21157;-60
2021/08/07 06:25:15;;;;;;;0.75;0.37;;;;;;;20.00;66.11;98825.98;1738796;81;21053;-58
2021/08/07 06:27:45;;;;;;;0.85;0.57;;;;;;;20.04;66.34;98827.39;1724961;81;21207;-58
2021/08/07 06:30:12;;;;;;;2.35;0.57;;;;;;;20.04;66.52;98827.39;1729480;81;21152;-59
2021/08/07 06:32:39;;;;;;;0.50;0.50;;;;;;;20.08;66.12;98832.88;1722192;81;22839;-57
2021/08/07 06:35:06;;;;;;;0.60;0.50;;;;;;;20.11;66.35;98831.72;1726470;81;21102;-60
2021/08/07 06:37:32;;;;;;;0.70;0.60;;;;;;;20.13;66.35;98837.89;1739915;81;21058;-58
2021/08/07 06:39:59;;;;;;;0.60;0.60;;;;;;;20.11;66.14;98831.22;1739689;81;21104;-59
2021/08/07 06:42:26;;;;;;;0.62;0.50;;;;;;;20.10;65.68;98829.49;1729914;81;21001;-59
2021/08/07 06:45:00;;;;;;;2.95;0.55;;;;;;;20.07;65.41;98831.20;1723868;81;21558;-59
2021/08/07 06:47:26;;;;;;;0.75;0.50;;;;;;;20.07;65.66;98829.83;1732284;81;21530;-56
2021/08/07 06:49:54;;;;;;;0.40;0.40;;;;;;;20.11;66.00;98833.95;1726984;81;21211;-58
2021/08/07 06:52:20;;;;;;;0.60;0.40;;;;;;;20.16;65.26;98828.86;1722515;81;21116;-60
2021/08/07 06:54:47;;;;;;;0.50;0.50;;;;;;;20.20;64.57;98831.64;1730850;81;21087;-57
2021/08/07 06:57:16;;;;;;;0.60;0.50;;;;;;;20.26;64.57;98839.20;1733947;81;21029;-60
2021/08/07 06:59:43;;;;;;;1.25;0.65;;;;;;;20.32;64.61;98844.57;1700330;81;21721;-58
2021/08/07 07:02:09;;;;;;;1.15;0.50;;;;;;;20.34;63.92;98846.14;1727455;80;21061;-56
2021/08/07 07:04:36;;;;;;;1.20;0.50;;;;;;;20.30;63.34;98844.72;1710159;81;20939;-58
2021/08/07 07:07:04;;;;;;;0.70;0.60;;;;;;;20.25;63.10;98848.92;1729720;81;20894;-58
2021/08/07 07:09:32;;;;;;;0.53;0.50;;;;;;;20.22;62.70;98850.62;1730297;81;21089;-58
2021/08/07 07:11:58;;;;;;;1.37;0.50;;;;;;;20.23;62.34;98848.24;1726983;81;21624;-60
2021/08/07 07:14:24;;;;;;;0.60;0.60;;;;;;;20.22;62.31;98835.09;1736722;81;20969;-58
2021/08/07 07:16:52;;;;;;;0.50;0.50;;;;;;;20.26;62.71;98846.55;1714646;81;21588;-56
2021/08/07 07:19:19;;;;;;;1.50;0.50;;;;;;;20.34;62.79;98852.11;1733046;81;21726;-59
2021/08/07 07:21:46;;;;;;;0.55;0.50;;;;;;;20.42;62.32;98847.22;1727296;81;21096;-58
2021/08/07 07:24:12;;;;;;;0.45;0.40;;;;;;;20.48;61.49;98836.53;1737238;81;22224;-60
2021/08/07 07:26:39;;;;;;;0.78;0.50;;;;;;;20.49;61.44;98847.83;1696988;83;21546;-60
2021/08/07 07:29:07;;;;;;;1.30;0.60;;;;;;;20.57;62.07;98849.77;1708837;81;21057;-60
2021/08/07 07:31:35;;;;;;;0.60;0.60;;;;;;;20.67;62.09;98848.63;1724861;81;20973;-60
2021/08/07 07:34:02;;;;;;;0.85;0.50;;;;;;;20.78;61.64;98847.52;1702944;81;21013;-58
2021/08/07 07:36:28;;;;;;;0.60;0.50;;;;;;;20.87;61.31;98849.29;1726789;82;21068;-57
2021/08/07 07:38:55;;;;;;;0.47;0.42;;;;;;;20.93;60.47;98850.00;1690979;83;21402;-57
2021/08/07 07:41:22;;;;;;;0.50;0.50;;;;;;;20.95;60.33;98848.48;1701106;81;21079;-59
2021/08/07 07:43:51;;;;;;;0.88;0.50;;;;;;;20.95;60.26;98846.60;1706537;81;21119;-59
2021/08/07 07:46:18;;;;;;;1.55;0.37;;;;;;;20.98;60.62;98850.40;1697399;81;21096;-56
2021/08/07 07:48:45;;;;;;;0.60;0.60;;;;;;;21.02;60.48;98860.48;1727681;81;21900;-58
2021/08/07 07:51:14;;;;;;;0.53;0.40;;;;;;;21.04;59.66;98855.21;1733063;81;21075;-60
2021/08/07 07:53:40;;;;;;;0.30;0.30;;;;;;;21.08;60.31;98861.23;1699493;83;21140;-58
2021/08/07 07:56:07;;;;;;;0.40;0.40;;;;;;;21.14;59.53;98863.31;1694728;83;21172;-59
2021/08/07 07:58:36;;;;;;;0.62;0.30;;;;;;;21.17;58.64;98866.25;1715588;81;21094;-59
2021/08/07 08:01:02;;;;;;;1.10;0.47;;;;;;;21.18;58.40;98861.16;1706221;81;21796;-59
2021/08/07 08:03:29;;;;;;;0.40;0.40;;;;;;;21.23;59.02;98856.90;1702247;82;21092;-60
2021/08/07 08:05:55;;;;;;;0.35;0.30;;;;;;;21.30;58.65;98861.20;1736653;81;21104;-58
2021/08/07 08:08:21;;;;;;;1.37;0.30;;;;;;;21.35;58.34;98860.22;1726229;81;21041;-59
2021/08/07 08:10:48;;;;;;;0.30;0.30;;;;;;;21.44;58.11;98863.31;1733023;81;21103;-59
2021/08/07 08:13:20;;;;;;;0.40;0.30;;;;;;;21.55;57.51;98873.98;1734806;81;21085;-59
2021/08/07 08:15:47;;;;;;;2.80;0.30;;;;;;;21.62;56.99;98872.30;1735877;81;21081;-59
2021/08/07 08:18:14;;;;;;;0.20;0.20;;;;;;;21.68;56.99;98868.92;1709137;81;21069;-59
2021/08/07 08:20:41;;;;;;;0.33;0.20;;;;;;;21.75;56.74;98868.59;1710908;81;21748;-59
2021/08/07 08:23:08;;;;;;;0.23;0.23;;;;;;;21.78;55.55;98868.75;1739081;81;21048;-59
2021/08/07 08:25:34;;;;;;;1.65;0.30;;;;;;;21.79;55.54;98862.25;1725976;81;21158;-59
2021/08/07 08:28:05;;;;;;;3.47;0.30;;;;;;;21.83;55.29;98858.17;1738186;81;21161;-61
2021/08/07 08:30:32;;;;;;;0.40;0.20;;;;;;;21.94;55.60;98861.12;1718647;80;21103;-64
2021/08/07 08:32:58;;;;;;;0.40;0.30;;;;;;;22.04;54.93;98864.58;1727508;81;21689;-62
2021/08/07 08:35:24;;;;;;;0.40;0.30;;;;;;;22.13;55.20;98865.80;1733035;81;22055;-64
2021/08/07 08:37:51;;;;;;;0.30;0.30;;;;;;;22.20;54.62;98866.84;1735212;81;21592;-63
2021/08/07 08:40:18;;;;;;;4.00;0.40;;;;;;;22.22;54.84;98870.78;1698886;81;21112;-60
2021/08/07 08:42:44;;;;;;;3.08;0.30;;;;;;;22.24;54.83;98875.59;1707337;82;21577;-61
2021/08/07 08:45:11;;;;;;;2.87;0.30;;;;;;;22.25;54.92;98876.80;1698165;81;21117;-65
2021/08/07 08:47:41;;;;;;;0.37;0.30;;;;;;;22.28;55.48;98876.98;1702649;81;20918;-61
2021/08/07 08:50:09;;;;;;;0.30;0.30;;;;;;;22.27;55.27;98871.16;1696536;82;21771;-63
2021/08/07 08:52:38;;;;;;;0.65;0.20;;;;;;;22.30;55.16;98875.42;1711647;81;21100;-61
2021/08/07 08:55:07;;;;;;;0.40;0.20;;;;;;;22.32;54.24;98857.78;1665445;83;21443;-64
2021/08/07 08:57:34;;;;;;;1.75;0.25;;;;;;;22.36;53.86;98861.91;1712748;81;21200;-61
2021/08/07 09:00:01;;;;;;;0.30;0.20;;;;;;;22.36;54.23;98861.91;1712058;82;21109;-62
2021/08/07 09:02:28;;;;;;;0.45;0.30;;;;;;;22.38;54.62;98851.61;1710597;82;21204;-62
2021/08/07 09:04:54;;;;;;;0.30;0.30;;;;;;;22.43;55.01;98854.72;1703798;82;21072;-65
2021/08/07 09:07:21;;;;;;;0.20;0.20;;;;;;;22.52;54.59;98868.78;1701379;82;20881;-59
2021/08/07 09:09:54;;;;;;;0.30;0.20;;;;;;;22.57;54.29;98873.73;1706257;82;21298;-61
2021/08/07 09:12:43;;;;;;;0.45;0.20;;;;;;;22.59;54.55;98872.55;1707497;82;21158;-65
2021/08/07 09:15:36;;;;;;;0.37;0.20;;;;;;;22.64;52.82;98875.61;1707399;82;21930;-64
2021/08/07 09:18:15;;;;;;;1.37;0.20;;;;;;;22.60;53.28;98877.52;1710852;82;21041;-61
2021/08/07 09:20:46;;;;;;;1.50;0.20;;;;;;;22.58;54.08;98872.20;1709696;82;21566;-64
2021/08/07 09:23:14;;;;;;;0.40;0.20;;;;;;;22.63;54.67;98868.41;1703891;82;21107;-63
2021/08/07 09:25:42;;;;;;;0.65;0.20;;;;;;;22.72;54.11;98861.03;1715204;82;21137;-65
2021/08/07 09:28:09;;;;;;;0.20;0.20;;;;;;;22.74;53.20;98860.88;1712175;82;21118;-57
2021/08/07 09:30:42;;;;;;;0.20;0.10;;;;;;;22.70;52.01;98868.61;1708919;82;21191;-58
2021/08/07 09:33:21;;;;;;;0.20;0.10;;;;;;;22.63;52.62;98862.92;1710115;81;21343;-57
2021/08/07 09:35:48;;;;;;;0.28;0.10;;;;;;;22.64;53.32;98867.39;1703963;81;21995;-58
2021/08/07 09:38:22;;;;;;;0.40;0.15;;;;;;;22.70;53.44;98875.47;1695413;82;21749;-62
2021/08/07 09:41:03;;;;;;;0.98;0.10;;;;;;;22.78;52.59;98876.86;1732365;81;21462;-60
2021/08/07 09:43:44;;;;;;;;;;;;;;;22.81;51.71;98883.36;1725521;81;21059;-62
2021/08/07 09:46:24;;;;;;;0.20;0.10;;;;;;;22.82;51.51;98891.08;1719121;81;20506;-67
2021/08/07 09:48:54;;;;;;;0.28;0.20;;;;;;;22.75;51.56;98885.94;1703953;82;21407;-63
2021/08/07 09:51:33;;;;;;;0.20;0.20;;;;;;;22.75;51.58;98890.05;1701674;81;21089;-58
2021/08/07 09:54:09;;;;;;;1.07;0.20;;;;;;;22.80;52.08;98884.89;1704861;82;21110;-64
2021/08/07 09:56:57;;;;;;;0.20;0.10;;;;;;;22.86;51.94;98902.06;1711739;82;20962;-60
2021/08/07 09:59:28;;;;;;;0.13;0.10;;;;;;;22.89;52.24;98899.81;1705998;81;21471;-62
2021/08/07 10:01:55;;;;;;;0.20;0.17;;;;;;;22.96;51.59;98898.12;1734899;81;20988;-61
2021/08/07 10:04:23;;;;;;;0.72;0.13;;;;;;;22.99;51.54;98896.89;1716635;81;21026;-61
2021/08/07 10:07:08;;;;;;;0.30;0.10;;;;;;;23.05;51.53;98903.59;1727544;81;21668;-60
2021/08/07 10:09:38;;;;;;;3.20;0.40;;;;;;;23.13;51.28;98901.70;1713265;81;20918;-63
2021/08/07 10:12:09;;;;;;;0.20;0.10;;;;;;;23.20;50.94;98906.83;1694352;82;21121;-64
2021/08/07 10:14:39;;;;;;;0.40;0.20;;;;;;;23.23;51.28;98913.31;1698418;83;21448;-59
2021/08/07 10:17:07;;;;;;;0.10;0.10;;;;;;;23.25;50.64;98916.76;1708950;81;21031;-60
2021/08/07 10:19:34;;;;;;;0.65;0.20;;;;;;;23.21;50.34;98909.91;1707577;81;21787;-61
2021/08/07 10:22:05;;;;;;;0.10;0.10;;;;;;;23.18;50.26;98909.39;1700307;82;21406;-65
2021/08/07 10:24:31;;;;;;;0.10;0.10;;;;;;;23.11;50.29;98921.59;1701712;83;21048;-60
2021/08/07 10:26:58;;;;;;;0.30;0.10;;;;;;;23.08;50.71;98919.70;1701788;82;21472;-62
2021/08/07 10:29:35;;;;;;;0.30;0.20;;;;;;;23.08;50.81;98919.19;1704008;82;21119;-60
2021/08/07 10:32:04;;;;;;;0.20;0.20;;;;;;;23.11;51.44;98927.59;1699479;82;21141;-58
2021/08/07 10:34:36;;;;;;;0.30;0.20;;;;;;;23.15;51.68;98924.83;1698846;83;21034;-60
2021/08/07 10:37:03;;;;;;;0.35;0.10;;;;;;;23.20;50.89;98930.67;1704048;82;21054;-63
2021/08/07 10:39:31;;;;;;;0.15;0.10;;;;;;;23.17;50.68;98943.36;1694408;82;21150;-63
2021/08/07 10:41:59;;;;;;;0.10;0.10;;;;;;;23.19;50.96;98936.68;1696870;82;21414;-60
2021/08/07 10:44:27;;;;;;;0.10;0.10;;;;;;;23.16;49.93;98945.77;1704655;82;21144;-63
2021/08/07 10:46:54;;;;;;;0.10;0.10;;;;;;;23.12;49.67;98946.64;1696252;82;21058;-60
2021/08/07 10:49:40;;;;;;;0.10;0.10;;;;;;;23.10;49.49;98943.20;1696666;82;21100;-58
2021/08/07 10:52:30;;;;;;;0.10;0.10;;;;;;;23.09;50.14;98937.88;1706443;82;21137;-59
2021/08/07 10:54:57;;;;;;;0.10;0.10;;;;;;;23.12;51.45;98938.41;1717019;82;21538;-61
2021/08/07 10:57:35;;;;;;;1.62;0.10;;;;;;;23.16;50.48;98935.64;1710826;82;21121;-61
2021/08/07 11:00:16;;;;;;;0.10;0.10;;;;;;;23.17;50.25;98940.10;1714047;82;21705;-62
2021/08/07 11:02:44;;;;;;;0.10;0.10;;;;;;;23.23;50.54;98935.28;1707603;82;21118;-64
2021/08/07 11:05:10;;;;;;;0.10;0.10;;;;;;;23.32;49.78;98938.36;1715416;82;20946;-61
2021/08/07 11:07:37;;;;;;;0.37;0.10;;;;;;;23.37;49.34;98936.48;1703604;82;21729;-60
2021/08/07 11:10:16;;;;;;;0.10;0.10;;;;;;;23.45;49.20;98939.72;1687462;82;21071;-61
2021/08/07 11:12:47;;;;;;;0.10;0.10;;;;;;;23.53;48.56;98942.48;1711848;82;21119;-61
2021/08/07 11:15:30;;;;;;;0.10;0.10;;;;;;;23.53;48.22;98950.20;1710258;82;21045;-63
2021/08/07 11:18:20;;;;;;;0.20;0.15;;;;;;;23.51;48.08;98941.27;1710000;81;21140;-64
2021/08/07 11:20:48;;;;;;;0.10;0.10;;;;;;;23.47;47.76;98947.28;1711360;81;21090;-59
2021/08/07 11:23:16;;;;;;;1.25;0.10;;;;;;;23.42;48.87;98948.30;1740909;81;21495;-62
2021/08/07 11:25:52;;;;;;;0.30;0.20;;;;;;;23.46;48.91;98950.54;1738670;80;21621;-65
2021/08/07 11:28:21;;;;;;;0.20;0.10;;;;;;;23.48;48.83;98943.50;1718139;82;21520;-60
2021/08/07 11:30:47;;;;;;;0.20;0.20;;;;;;;23.47;49.12;98948.65;1715255;82;21104;-59
2021/08/07 11:33:19;;;;;;;0.33;0.20;;;;;;;23.50;50.12;98953.80;1703362;82;21116;-63
2021/08/07 11:35:51;;;;;;;0.20;0.10;;;;;;;23.61;49.89;98936.45;1714692;82;21022;-65
2021/08/07 11:38:23;;;;;;;0.17;0.10;;;;;;;23.74;48.45;98935.36;1714382;82;21207;-62
2021/08/07 11:40:55;;;;;;;0.10;0.10;;;;;;;23.84;49.14;98943.91;1708978;81;21696;-64
2021/08/07 11:43:33;;;;;;;2.02;0.10;;;;;;;23.94;48.18;98937.69;1709543;82;21128;-62
2021/08/07 11:46:05;;;;;;;0.15;0.10;;;;;;;23.99;47.56;98938.86;1711508;82;21128;-62